sensor_id;sensor_type;location;lat;lon;timestamp;P1;durP1;ratioP1;P2;durP2;ratioP2
3873;SDS011;1952;50.872;6.692;2024-01-16T00:01:14;6.00;;;4.23;;
3873;SDS011;1952;50.872;6.692;2024-01-16T00:03:44;4.83;;;4.00;;
3873;SDS011;1952;50.872;6.692;2024-01-16T00:06:12;6.90;;;5.00;;
3873;SDS011;1952;50.872;6.692;2024-01-16T00:08:41;9.50;;;5.30;;
3873;SDS011;1952;50.872;6.692;2024-01-16T00:11:11;4.73;;;4.33;;
3873;SDS011;1952;50.872;6.692;2024-01-16T00:13:39;6.23;;;4.23;;
3873;SDS011;1952;50.872;6.692;2024-01-16T00:16:09;5.97;;;4.50;;
3873;SDS011;1952;50.872;6.692;2024-01-16T00:18:38;7.63;;;4.70;;
3873;SDS011;1952;50.872;6.692;2024-01-16T00:21:06;10.30;;;4.30;;
3873;SDS011;1952;50.872;6.692;2024-01-16T00:23:35;7.10;;;4.97;;
3873;SDS011;1952;50.872;6.692;2024-01-16T00:26:03;6.87;;;4.30;;
3873;SDS011;1952;50.872;6.692;2024-01-16T00:28:33;9.40;;;5.13;;
3873;SDS011;1952;50.872;6.692;2024-01-16T00:31:06;5.33;;;4.80;;
3873;SDS011;1952;50.872;6.692;2024-01-16T00:33:35;6.90;;;4.60;;
3873;SDS011;1952;50.872;6.692;2024-01-16T00:36:04;5.00;;;4.60;;
3873;SDS011;1952;50.872;6.692;2024-01-16T00:38:33;4.53;;;4.23;;
3873;SDS011;1952;50.872;6.692;2024-01-16T00:41:01;4.30;;;3.63;;
3873;SDS011;1952;50.872;6.692;2024-01-16T00:43:30;6.63;;;4.00;;
3873;SDS011;1952;50.872;6.692;2024-01-16T00:45:59;13.63;;;5.30;;
3873;SDS011;1952;50.872;6.692;2024-01-16T00:48:28;6.23;;;4.50;;
3873;SDS011;1952;50.872;6.692;2024-01-16T00:50:56;8.70;;;4.60;;
3873;SDS011;1952;50.872;6.692;2024-01-16T00:53:25;5.33;;;3.50;;
3873;SDS011;1952;50.872;6.692;2024-01-16T00:55:54;4.97;;;4.23;;
3873;SDS011;1952;50.872;6.692;2024-01-16T00:58:22;7.97;;;4.80;;
3873;SDS011;1952;50.872;6.692;2024-01-16T01:00:50;4.87;;;3.73;;
3873;SDS011;1952;50.872;6.692;2024-01-16T01:03:20;4.50;;;3.40;;
3873;SDS011;1952;50.872;6.692;2024-01-16T01:05:49;7.20;;;4.90;;
3873;SDS011;1952;50.872;6.692;2024-01-16T01:44:03;8.13;;;4.57;;
3873;SDS011;1952;50.872;6.692;2024-01-16T01:46:31;4.97;;;4.47;;
3873;SDS011;1952;50.872;6.692;2024-01-16T01:49:01;11.90;;;4.10;;
3873;SDS011;1952;50.872;6.692;2024-01-16T01:51:30;7.60;;;4.70;;
3873;SDS011;1952;50.872;6.692;2024-01-16T01:53:59;11.77;;;5.53;;
3873;SDS011;1952;50.872;6.692;2024-01-16T01:56:28;4.70;;;3.60;;
3873;SDS011;1952;50.872;6.692;2024-01-16T01:58:57;4.50;;;4.10;;
3873;SDS011;1952;50.872;6.692;2024-01-16T02:01:27;11.50;;;4.47;;
3873;SDS011;1952;50.872;6.692;2024-01-16T02:03:56;6.80;;;4.20;;
3873;SDS011;1952;50.872;6.692;2024-01-16T02:06:25;9.53;;;4.30;;
3873;SDS011;1952;50.872;6.692;2024-01-16T02:08:54;10.90;;;4.40;;
3873;SDS011;1952;50.872;6.692;2024-01-16T02:11:22;4.13;;;3.73;;
3873;SDS011;1952;50.872;6.692;2024-01-16T02:13:50;7.37;;;4.53;;
3873;SDS011;1952;50.872;6.692;2024-01-16T02:16:19;6.67;;;4.10;;
3873;SDS011;1952;50.872;6.692;2024-01-16T02:18:49;9.13;;;4.40;;
3873;SDS011;1952;50.872;6.692;2024-01-16T02:21:18;6.90;;;5.47;;
3873;SDS011;1952;50.872;6.692;2024-01-16T02:23:51;11.90;;;4.90;;
3873;SDS011;1952;50.872;6.692;2024-01-16T02:26:19;9.50;;;4.27;;
3873;SDS011;1952;50.872;6.692;2024-01-16T02:28:48;9.50;;;4.20;;
3873;SDS011;1952;50.872;6.692;2024-01-16T02:31:17;5.80;;;4.67;;
3873;SDS011;1952;50.872;6.692;2024-01-16T02:33:45;5.57;;;4.67;;
3873;SDS011;1952;50.872;6.692;2024-01-16T02:36:14;9.83;;;4.43;;
3873;SDS011;1952;50.872;6.692;2024-01-16T02:38:42;6.53;;;4.63;;
3873;SDS011;1952;50.872;6.692;2024-01-16T02:41:14;8.93;;;4.30;;
3873;SDS011;1952;50.872;6.692;2024-01-16T02:43:43;5.87;;;4.90;;
3873;SDS011;1952;50.872;6.692;2024-01-16T02:46:11;7.27;;;4.43;;
3873;SDS011;1952;50.872;6.692;2024-01-16T02:48:40;6.63;;;4.50;;
3873;SDS011;1952;50.872;6.692;2024-01-16T02:51:09;10.73;;;4.50;;
3873;SDS011;1952;50.872;6.692;2024-01-16T02:53:37;6.83;;;4.43;;
3873;SDS011;1952;50.872;6.692;2024-01-16T02:56:05;7.10;;;4.07;;
3873;SDS011;1952;50.872;6.692;2024-01-16T02:58:36;7.97;;;4.90;;
3873;SDS011;1952;50.872;6.692;2024-01-16T03:01:04;7.33;;;4.53;;
3873;SDS011;1952;50.872;6.692;2024-01-16T03:03:33;5.70;;;4.23;;
3873;SDS011;1952;50.872;6.692;2024-01-16T03:06:02;7.27;;;3.87;;
3873;SDS011;1952;50.872;6.692;2024-01-16T03:08:31;6.07;;;4.87;;
3873;SDS011;1952;50.872;6.692;2024-01-16T03:10:59;5.63;;;4.97;;
3873;SDS011;1952;50.872;6.692;2024-01-16T03:13:29;9.83;;;4.47;;
3873;SDS011;1952;50.872;6.692;2024-01-16T03:15:58;6.60;;;4.60;;
3873;SDS011;1952;50.872;6.692;2024-01-16T03:18:27;6.00;;;4.30;;
3873;SDS011;1952;50.872;6.692;2024-01-16T03:20:56;10.03;;;4.37;;
3873;SDS011;1952;50.872;6.692;2024-01-16T03:23:24;8.70;;;4.60;;
3873;SDS011;1952;50.872;6.692;2024-01-16T03:25:52;6.87;;;4.77;;
3873;SDS011;1952;50.872;6.692;2024-01-16T03:28:20;6.07;;;4.20;;
3873;SDS011;1952;50.872;6.692;2024-01-16T03:30:48;5.53;;;3.60;;
3873;SDS011;1952;50.872;6.692;2024-01-16T03:33:18;6.83;;;5.80;;
3873;SDS011;1952;50.872;6.692;2024-01-16T03:35:47;12.13;;;6.07;;
3873;SDS011;1952;50.872;6.692;2024-01-16T03:38:15;8.17;;;4.83;;
3873;SDS011;1952;50.872;6.692;2024-01-16T03:40:44;7.50;;;5.10;;
3873;SDS011;1952;50.872;6.692;2024-01-16T03:43:12;7.13;;;5.00;;
3873;SDS011;1952;50.872;6.692;2024-01-16T03:45:40;11.93;;;6.33;;
3873;SDS011;1952;50.872;6.692;2024-01-16T03:48:09;9.07;;;6.00;;
3873;SDS011;1952;50.872;6.692;2024-01-16T03:50:38;9.33;;;5.10;;
3873;SDS011;1952;50.872;6.692;2024-01-16T03:53:10;6.10;;;5.40;;
3873;SDS011;1952;50.872;6.692;2024-01-16T03:55:39;9.43;;;5.43;;
3873;SDS011;1952;50.872;6.692;2024-01-16T03:58:07;12.43;;;4.30;;
3873;SDS011;1952;50.872;6.692;2024-01-16T04:00:38;6.50;;;4.70;;
3873;SDS011;1952;50.872;6.692;2024-01-16T04:03:07;14.80;;;5.60;;
3873;SDS011;1952;50.872;6.692;2024-01-16T04:05:35;9.20;;;4.73;;
3873;SDS011;1952;50.872;6.692;2024-01-16T04:08:05;8.37;;;5.70;;
3873;SDS011;1952;50.872;6.692;2024-01-16T04:10:34;5.03;;;4.53;;
3873;SDS011;1952;50.872;6.692;2024-01-16T04:13:03;11.30;;;4.70;;
3873;SDS011;1952;50.872;6.692;2024-01-16T04:15:32;8.00;;;4.77;;
3873;SDS011;1952;50.872;6.692;2024-01-16T04:18:00;9.40;;;4.57;;
3873;SDS011;1952;50.872;6.692;2024-01-16T04:20:29;5.63;;;4.50;;
3873;SDS011;1952;50.872;6.692;2024-01-16T04:22:57;14.17;;;4.67;;
3873;SDS011;1952;50.872;6.692;2024-01-16T04:25:27;5.20;;;4.67;;
3873;SDS011;1952;50.872;6.692;2024-01-16T04:27:55;7.53;;;4.40;;
3873;SDS011;1952;50.872;6.692;2024-01-16T04:30:28;4.97;;;4.53;;
3873;SDS011;1952;50.872;6.692;2024-01-16T04:32:56;5.53;;;4.70;;
3873;SDS011;1952;50.872;6.692;2024-01-16T04:35:25;6.90;;;4.40;;
3873;SDS011;1952;50.872;6.692;2024-01-16T04:37:53;5.80;;;4.40;;
3873;SDS011;1952;50.872;6.692;2024-01-16T04:40:22;9.37;;;4.40;;
3873;SDS011;1952;50.872;6.692;2024-01-16T04:42:51;6.87;;;4.60;;
3873;SDS011;1952;50.872;6.692;2024-01-16T04:45:20;10.63;;;4.40;;
3873;SDS011;1952;50.872;6.692;2024-01-16T04:47:48;7.00;;;5.60;;
3873;SDS011;1952;50.872;6.692;2024-01-16T04:50:16;7.23;;;5.63;;
3873;SDS011;1952;50.872;6.692;2024-01-16T04:52:45;10.87;;;5.83;;
3873;SDS011;1952;50.872;6.692;2024-01-16T04:55:15;6.87;;;4.70;;
3873;SDS011;1952;50.872;6.692;2024-01-16T04:57:43;6.67;;;4.60;;
3873;SDS011;1952;50.872;6.692;2024-01-16T05:00:41;4.73;;;4.30;;
3873;SDS011;1952;50.872;6.692;2024-01-16T05:03:09;7.93;;;5.30;;
3873;SDS011;1952;50.872;6.692;2024-01-16T05:05:38;7.27;;;5.37;;
3873;SDS011;1952;50.872;6.692;2024-01-16T05:08:06;6.20;;;5.07;;
3873;SDS011;1952;50.872;6.692;2024-01-16T05:10:35;9.47;;;4.63;;
3873;SDS011;1952;50.872;6.692;2024-01-16T05:13:03;11.27;;;5.17;;
3873;SDS011;1952;50.872;6.692;2024-01-16T05:15:32;11.27;;;6.33;;
3873;SDS011;1952;50.872;6.692;2024-01-16T05:18:01;5.20;;;4.70;;
3873;SDS011;1952;50.872;6.692;2024-01-16T05:20:30;7.13;;;4.73;;
3873;SDS011;1952;50.872;6.692;2024-01-16T05:22:58;14.60;;;4.83;;
3873;SDS011;1952;50.872;6.692;2024-01-16T05:25:27;6.00;;;3.90;;
3873;SDS011;1952;50.872;6.692;2024-01-16T05:27:55;11.30;;;4.50;;
3873;SDS011;1952;50.872;6.692;2024-01-16T05:30:23;7.87;;;5.30;;
3873;SDS011;1952;50.872;6.692;2024-01-16T05:32:52;9.50;;;4.57;;
3873;SDS011;1952;50.872;6.692;2024-01-16T05:35:21;6.30;;;3.87;;
3873;SDS011;1952;50.872;6.692;2024-01-16T05:37:51;8.30;;;4.73;;
3873;SDS011;1952;50.872;6.692;2024-01-16T05:40:19;5.50;;;4.33;;
3873;SDS011;1952;50.872;6.692;2024-01-16T05:42:48;4.40;;;4.00;;
3873;SDS011;1952;50.872;6.692;2024-01-16T05:45:16;4.30;;;3.80;;
3873;SDS011;1952;50.872;6.692;2024-01-16T05:47:45;6.63;;;4.63;;
3873;SDS011;1952;50.872;6.692;2024-01-16T05:50:14;11.47;;;3.80;;
3873;SDS011;1952;50.872;6.692;2024-01-16T05:52:44;7.03;;;4.00;;
3873;SDS011;1952;50.872;6.692;2024-01-16T05:55:13;10.00;;;4.27;;
3873;SDS011;1952;50.872;6.692;2024-01-16T05:57:41;6.87;;;4.67;;
3873;SDS011;1952;50.872;6.692;2024-01-16T06:00:10;5.50;;;3.80;;
3873;SDS011;1952;50.872;6.692;2024-01-16T06:02:39;11.97;;;4.73;;
3873;SDS011;1952;50.872;6.692;2024-01-16T06:05:07;9.60;;;4.00;;
3873;SDS011;1952;50.872;6.692;2024-01-16T06:07:35;9.73;;;4.43;;
3873;SDS011;1952;50.872;6.692;2024-01-16T06:10:06;5.27;;;4.70;;
3873;SDS011;1952;50.872;6.692;2024-01-16T06:12:35;7.77;;;4.07;;
3873;SDS011;1952;50.872;6.692;2024-01-16T06:15:04;8.80;;;5.00;;
3873;SDS011;1952;50.872;6.692;2024-01-16T06:17:33;7.20;;;3.80;;
3873;SDS011;1952;50.872;6.692;2024-01-16T06:20:16;7.57;;;4.53;;
3873;SDS011;1952;50.872;6.692;2024-01-16T06:22:45;7.37;;;3.83;;
3873;SDS011;1952;50.872;6.692;2024-01-16T06:25:38;6.53;;;3.53;;
3873;SDS011;1952;50.872;6.692;2024-01-16T06:28:10;6.17;;;3.40;;
3873;SDS011;1952;50.872;6.692;2024-01-16T06:30:39;6.10;;;3.67;;
3873;SDS011;1952;50.872;6.692;2024-01-16T06:33:09;5.10;;;3.63;;
3873;SDS011;1952;50.872;6.692;2024-01-16T06:35:38;5.47;;;3.57;;
3873;SDS011;1952;50.872;6.692;2024-01-16T06:38:08;3.70;;;3.40;;
3873;SDS011;1952;50.872;6.692;2024-01-16T06:43:52;8.43;;;3.53;;
3873;SDS011;1952;50.872;6.692;2024-01-16T06:46:21;9.90;;;3.57;;
3873;SDS011;1952;50.872;6.692;2024-01-16T06:48:52;7.53;;;3.20;;
3873;SDS011;1952;50.872;6.692;2024-01-16T06:51:40;9.43;;;3.60;;
3873;SDS011;1952;50.872;6.692;2024-01-16T06:54:21;5.63;;;3.47;;
3873;SDS011;1952;50.872;6.692;2024-01-16T06:56:53;3.67;;;2.90;;
3873;SDS011;1952;50.872;6.692;2024-01-16T06:59:50;5.00;;;3.60;;
3873;SDS011;1952;50.872;6.692;2024-01-16T07:02:21;4.00;;;3.33;;
3873;SDS011;1952;50.872;6.692;2024-01-16T07:05:01;4.70;;;3.07;;
3873;SDS011;1952;50.872;6.692;2024-01-16T07:07:39;4.70;;;2.90;;
3873;SDS011;1952;50.872;6.692;2024-01-16T07:10:10;8.67;;;3.77;;
3873;SDS011;1952;50.872;6.692;2024-01-16T07:13:08;7.00;;;3.50;;
3873;SDS011;1952;50.872;6.692;2024-01-16T07:36:00;5.90;;;2.80;;
3873;SDS011;1952;50.872;6.692;2024-01-16T07:38:42;5.83;;;2.83;;
3873;SDS011;1952;50.872;6.692;2024-01-16T07:41:39;4.83;;;3.27;;
3873;SDS011;1952;50.872;6.692;2024-01-16T07:44:26;4.57;;;2.53;;
3873;SDS011;1952;50.872;6.692;2024-01-16T07:46:57;7.53;;;3.17;;
3873;SDS011;1952;50.872;6.692;2024-01-16T07:49:53;4.80;;;2.70;;
3873;SDS011;1952;50.872;6.692;2024-01-16T07:59:10;4.60;;;2.60;;
3873;SDS011;1952;50.872;6.692;2024-01-16T08:01:47;3.00;;;2.70;;
3873;SDS011;1952;50.872;6.692;2024-01-16T08:04:46;2.83;;;2.63;;
3873;SDS011;1952;50.872;6.692;2024-01-16T08:07:45;8.67;;;2.80;;
3873;SDS011;1952;50.872;6.692;2024-01-16T08:10:23;3.93;;;2.77;;
3873;SDS011;1952;50.872;6.692;2024-01-16T08:13:06;3.80;;;2.70;;
3873;SDS011;1952;50.872;6.692;2024-01-16T08:15:49;4.13;;;2.90;;
3873;SDS011;1952;50.872;6.692;2024-01-16T08:18:23;5.43;;;3.10;;
3873;SDS011;1952;50.872;6.692;2024-01-16T08:21:08;4.10;;;3.10;;
3873;SDS011;1952;50.872;6.692;2024-01-16T08:24:04;2.60;;;2.17;;
3873;SDS011;1952;50.872;6.692;2024-01-16T08:27:02;4.70;;;2.97;;
3873;SDS011;1952;50.872;6.692;2024-01-16T08:29:40;8.03;;;3.60;;
3873;SDS011;1952;50.872;6.692;2024-01-16T08:32:30;5.73;;;2.70;;
3873;SDS011;1952;50.872;6.692;2024-01-16T08:35:23;6.80;;;2.70;;
3873;SDS011;1952;50.872;6.692;2024-01-16T08:38:25;7.50;;;3.20;;
3873;SDS011;1952;50.872;6.692;2024-01-16T08:40:58;6.43;;;2.97;;
3873;SDS011;1952;50.872;6.692;2024-01-16T08:43:35;5.77;;;2.73;;
3873;SDS011;1952;50.872;6.692;2024-01-16T08:46:25;6.87;;;3.40;;
3873;SDS011;1952;50.872;6.692;2024-01-16T09:02:49;4.20;;;2.60;;
3873;SDS011;1952;50.872;6.692;2024-01-16T09:05:19;4.07;;;2.60;;
3873;SDS011;1952;50.872;6.692;2024-01-16T09:07:52;3.83;;;3.03;;
3873;SDS011;1952;50.872;6.692;2024-01-16T09:10:49;5.40;;;2.80;;
3873;SDS011;1952;50.872;6.692;2024-01-16T09:13:45;4.53;;;2.97;;
3873;SDS011;1952;50.872;6.692;2024-01-16T09:16:30;8.47;;;3.33;;
3873;SDS011;1952;50.872;6.692;2024-01-16T09:22:48;5.27;;;3.13;;
3873;SDS011;1952;50.872;6.692;2024-01-16T09:25:32;5.90;;;3.33;;
3873;SDS011;1952;50.872;6.692;2024-01-16T09:28:31;6.67;;;4.07;;
3873;SDS011;1952;50.872;6.692;2024-01-16T09:31:15;5.57;;;3.13;;
3873;SDS011;1952;50.872;6.692;2024-01-16T09:33:59;4.43;;;3.30;;
3873;SDS011;1952;50.872;6.692;2024-01-16T09:36:43;4.37;;;2.53;;
3873;SDS011;1952;50.872;6.692;2024-01-16T09:42:44;4.33;;;2.77;;
3873;SDS011;1952;50.872;6.692;2024-01-16T09:45:31;5.27;;;3.10;;
3873;SDS011;1952;50.872;6.692;2024-01-16T09:48:04;4.00;;;3.57;;
3873;SDS011;1952;50.872;6.692;2024-01-16T09:50:48;3.17;;;2.73;;
3873;SDS011;1952;50.872;6.692;2024-01-16T09:53:44;3.53;;;3.10;;
3873;SDS011;1952;50.872;6.692;2024-01-16T09:56:47;4.33;;;2.80;;
3873;SDS011;1952;50.872;6.692;2024-01-16T10:16:05;6.20;;;2.83;;
3873;SDS011;1952;50.872;6.692;2024-01-16T10:19:14;7.70;;;3.10;;
3873;SDS011;1952;50.872;6.692;2024-01-16T10:22:00;8.80;;;3.60;;
3873;SDS011;1952;50.872;6.692;2024-01-16T10:24:46;3.13;;;2.43;;
3873;SDS011;1952;50.872;6.692;2024-01-16T10:27:23;3.33;;;3.03;;
3873;SDS011;1952;50.872;6.692;2024-01-16T10:30:13;4.90;;;3.80;;
3873;SDS011;1952;50.872;6.692;2024-01-16T10:39:31;2.90;;;2.20;;
3873;SDS011;1952;50.872;6.692;2024-01-16T10:42:09;3.57;;;3.03;;
3873;SDS011;1952;50.872;6.692;2024-01-16T10:44:39;8.97;;;3.67;;
3873;SDS011;1952;50.872;6.692;2024-01-16T10:47:21;3.47;;;2.83;;
3873;SDS011;1952;50.872;6.692;2024-01-16T10:49:58;10.17;;;5.60;;
3873;SDS011;1952;50.872;6.692;2024-01-16T10:52:27;6.67;;;3.20;;
3873;SDS011;1952;50.872;6.692;2024-01-16T10:55:11;7.27;;;3.43;;
3873;SDS011;1952;50.872;6.692;2024-01-16T10:57:48;3.57;;;2.97;;
3873;SDS011;1952;50.872;6.692;2024-01-16T11:00:31;4.00;;;2.63;;
3873;SDS011;1952;50.872;6.692;2024-01-16T11:03:06;5.40;;;4.03;;
3873;SDS011;1952;50.872;6.692;2024-01-16T11:05:47;6.40;;;2.90;;
3873;SDS011;1952;50.872;6.692;2024-01-16T11:08:28;4.60;;;2.97;;
3873;SDS011;1952;50.872;6.692;2024-01-16T11:11:15;4.67;;;3.50;;
3873;SDS011;1952;50.872;6.692;2024-01-16T11:23:11;2.80;;;2.60;;
3873;SDS011;1952;50.872;6.692;2024-01-16T11:45:55;6.43;;;3.20;;
3873;SDS011;1952;50.872;6.692;2024-01-16T12:16:42;7.30;;;4.10;;
3873;SDS011;1952;50.872;6.692;2024-01-16T12:22:12;13.47;;;4.50;;
3873;SDS011;1952;50.872;6.692;2024-01-16T12:58:49;6.50;;;4.70;;
3873;SDS011;1952;50.872;6.692;2024-01-16T14:33:30;5.90;;;4.77;;
3873;SDS011;1952;50.872;6.692;2024-01-16T14:36:29;7.27;;;5.27;;
3873;SDS011;1952;50.872;6.692;2024-01-16T14:39:03;10.37;;;5.17;;
3873;SDS011;1952;50.872;6.692;2024-01-16T14:42:09;8.13;;;5.20;;
3873;SDS011;1952;50.872;6.692;2024-01-16T14:45:26;6.50;;;4.90;;
3873;SDS011;1952;50.872;6.692;2024-01-16T15:25:34;7.93;;;5.20;;
3873;SDS011;1952;50.872;6.692;2024-01-16T15:28:21;7.53;;;3.77;;
3873;SDS011;1952;50.872;6.692;2024-01-16T15:31:19;4.60;;;4.10;;
3873;SDS011;1952;50.872;6.692;2024-01-16T15:36:57;13.40;;;5.40;;
3873;SDS011;1952;50.872;6.692;2024-01-16T15:39:28;6.50;;;3.93;;
3873;SDS011;1952;50.872;6.692;2024-01-16T15:45:38;5.03;;;3.80;;
3873;SDS011;1952;50.872;6.692;2024-01-16T15:48:21;5.60;;;4.20;;
3873;SDS011;1952;50.872;6.692;2024-01-16T15:51:17;8.80;;;4.90;;
3873;SDS011;1952;50.872;6.692;2024-01-16T15:53:54;7.90;;;4.60;;
3873;SDS011;1952;50.872;6.692;2024-01-16T15:56:23;7.17;;;4.80;;
3873;SDS011;1952;50.872;6.692;2024-01-16T15:58:54;8.80;;;7.03;;
3873;SDS011;1952;50.872;6.692;2024-01-16T16:01:31;8.57;;;4.50;;
3873;SDS011;1952;50.872;6.692;2024-01-16T16:04:14;5.40;;;4.27;;
3873;SDS011;1952;50.872;6.692;2024-01-16T16:07:10;5.97;;;4.67;;
3873;SDS011;1952;50.872;6.692;2024-01-16T16:10:07;5.57;;;4.43;;
3873;SDS011;1952;50.872;6.692;2024-01-16T16:18:11;7.20;;;4.03;;
3873;SDS011;1952;50.872;6.692;2024-01-16T16:20:51;9.10;;;5.80;;
3873;SDS011;1952;50.872;6.692;2024-01-16T16:23:26;6.93;;;4.77;;
3873;SDS011;1952;50.872;6.692;2024-01-16T16:25:58;5.13;;;4.57;;
3873;SDS011;1952;50.872;6.692;2024-01-16T16:28:27;5.87;;;4.70;;
3873;SDS011;1952;50.872;6.692;2024-01-16T16:30:58;13.53;;;3.63;;
3873;SDS011;1952;50.872;6.692;2024-01-16T16:33:31;5.93;;;4.77;;
3873;SDS011;1952;50.872;6.692;2024-01-16T16:36:03;6.10;;;4.90;;
3873;SDS011;1952;50.872;6.692;2024-01-16T16:39:00;8.23;;;6.23;;
3873;SDS011;1952;50.872;6.692;2024-01-16T16:41:53;13.13;;;7.90;;
3873;SDS011;1952;50.872;6.692;2024-01-16T16:44:36;9.17;;;7.10;;
3873;SDS011;1952;50.872;6.692;2024-01-16T16:47:19;7.80;;;5.63;;
3873;SDS011;1952;50.872;6.692;2024-01-16T16:58:51;10.53;;;5.53;;
3873;SDS011;1952;50.872;6.692;2024-01-16T17:01:24;8.40;;;5.50;;
3873;SDS011;1952;50.872;6.692;2024-01-16T17:04:10;13.00;;;8.17;;
3873;SDS011;1952;50.872;6.692;2024-01-16T17:06:41;8.83;;;6.07;;
3873;SDS011;1952;50.872;6.692;2024-01-16T17:09:31;8.70;;;6.70;;
3873;SDS011;1952;50.872;6.692;2024-01-16T17:12:04;9.13;;;6.07;;
3873;SDS011;1952;50.872;6.692;2024-01-16T17:14:49;9.50;;;6.70;;
3873;SDS011;1952;50.872;6.692;2024-01-16T17:17:21;10.63;;;6.87;;
3873;SDS011;1952;50.872;6.692;2024-01-16T17:19:50;9.37;;;4.67;;
3873;SDS011;1952;50.872;6.692;2024-01-16T17:22:23;5.57;;;4.70;;
3873;SDS011;1952;50.872;6.692;2024-01-16T17:24:55;11.13;;;6.90;;
3873;SDS011;1952;50.872;6.692;2024-01-16T17:27:38;5.00;;;4.50;;
3873;SDS011;1952;50.872;6.692;2024-01-16T17:30:11;8.07;;;5.60;;
3873;SDS011;1952;50.872;6.692;2024-01-16T17:32:40;8.53;;;6.40;;
3873;SDS011;1952;50.872;6.692;2024-01-16T17:35:38;9.10;;;6.00;;
3873;SDS011;1952;50.872;6.692;2024-01-16T17:38:21;10.77;;;5.17;;
3873;SDS011;1952;50.872;6.692;2024-01-16T17:40:49;9.53;;;5.67;;
3873;SDS011;1952;50.872;6.692;2024-01-16T17:43:19;8.57;;;5.67;;
3873;SDS011;1952;50.872;6.692;2024-01-16T17:46:05;6.20;;;4.90;;
3873;SDS011;1952;50.872;6.692;2024-01-16T17:48:48;9.37;;;6.10;;
3873;SDS011;1952;50.872;6.692;2024-01-16T17:51:17;11.00;;;6.23;;
3873;SDS011;1952;50.872;6.692;2024-01-16T17:53:49;14.13;;;5.70;;
3873;SDS011;1952;50.872;6.692;2024-01-16T17:56:27;10.17;;;5.40;;
3873;SDS011;1952;50.872;6.692;2024-01-16T17:59:02;7.93;;;5.67;;
3873;SDS011;1952;50.872;6.692;2024-01-16T18:11:12;6.77;;;4.90;;
3873;SDS011;1952;50.872;6.692;2024-01-16T18:16:43;7.57;;;5.73;;
3873;SDS011;1952;50.872;6.692;2024-01-16T18:22:29;10.33;;;5.77;;
3873;SDS011;1952;50.872;6.692;2024-01-16T18:25:05;8.90;;;6.43;;
3873;SDS011;1952;50.872;6.692;2024-01-16T18:49:55;6.80;;;5.90;;
3873;SDS011;1952;50.872;6.692;2024-01-16T18:52:38;8.77;;;6.40;;
3873;SDS011;1952;50.872;6.692;2024-01-16T18:55:39;6.13;;;5.00;;
3873;SDS011;1952;50.872;6.692;2024-01-16T18:58:21;7.10;;;5.33;;
3873;SDS011;1952;50.872;6.692;2024-01-16T19:01:18;8.00;;;6.07;;
3873;SDS011;1952;50.872;6.692;2024-01-16T19:03:52;8.07;;;6.60;;
3873;SDS011;1952;50.872;6.692;2024-01-16T19:06:34;8.57;;;6.40;;
3873;SDS011;1952;50.872;6.692;2024-01-16T19:09:31;9.80;;;8.80;;
3873;SDS011;1952;50.872;6.692;2024-01-16T19:12:23;11.53;;;6.87;;
3873;SDS011;1952;50.872;6.692;2024-01-16T19:15:22;6.57;;;4.90;;
3873;SDS011;1952;50.872;6.692;2024-01-16T19:18:05;7.30;;;5.40;;
3873;SDS011;1952;50.872;6.692;2024-01-16T19:20:52;5.77;;;5.17;;
3873;SDS011;1952;50.872;6.692;2024-01-16T19:56:39;8.30;;;6.40;;
3873;SDS011;1952;50.872;6.692;2024-01-16T19:59:13;11.77;;;6.30;;
3873;SDS011;1952;50.872;6.692;2024-01-16T20:01:58;5.87;;;5.37;;
3873;SDS011;1952;50.872;6.692;2024-01-16T20:04:54;7.30;;;5.50;;
3873;SDS011;1952;50.872;6.692;2024-01-16T20:07:55;7.50;;;5.40;;
3873;SDS011;1952;50.872;6.692;2024-01-16T20:10:51;9.30;;;7.03;;
3873;SDS011;1952;50.872;6.692;2024-01-16T20:16:21;9.60;;;6.13;;
3873;SDS011;1952;50.872;6.692;2024-01-16T20:18:51;12.13;;;7.07;;
3873;SDS011;1952;50.872;6.692;2024-01-16T20:21:42;14.33;;;6.17;;
3873;SDS011;1952;50.872;6.692;2024-01-16T20:24:38;12.27;;;6.57;;
3873;SDS011;1952;50.872;6.692;2024-01-16T20:27:11;7.93;;;6.50;;
3873;SDS011;1952;50.872;6.692;2024-01-16T20:30:08;12.40;;;7.20;;
3873;SDS011;1952;50.872;6.692;2024-01-16T20:51:50;7.87;;;5.63;;
3873;SDS011;1952;50.872;6.692;2024-01-16T20:54:46;6.53;;;5.93;;
3873;SDS011;1952;50.872;6.692;2024-01-16T20:57:32;8.87;;;6.03;;
3873;SDS011;1952;50.872;6.692;2024-01-16T21:00:24;10.90;;;6.93;;
3873;SDS011;1952;50.872;6.692;2024-01-16T21:03:08;6.57;;;5.90;;
3873;SDS011;1952;50.872;6.692;2024-01-16T21:05:53;8.50;;;6.10;;
3873;SDS011;1952;50.872;6.692;2024-01-16T21:12:02;9.77;;;7.23;;
3873;SDS011;1952;50.872;6.692;2024-01-16T21:14:59;9.60;;;7.43;;
3873;SDS011;1952;50.872;6.692;2024-01-16T21:17:50;13.50;;;7.77;;
3873;SDS011;1952;50.872;6.692;2024-01-16T21:20:55;6.80;;;6.20;;
3873;SDS011;1952;50.872;6.692;2024-01-16T21:23:51;10.83;;;6.43;;
3873;SDS011;1952;50.872;6.692;2024-01-16T21:26:48;12.17;;;8.30;;
3873;SDS011;1952;50.872;6.692;2024-01-16T22:59:10;10.93;;;7.33;;
3873;SDS011;1952;50.872;6.692;2024-01-16T23:01:41;10.63;;;6.83;;
3873;SDS011;1952;50.872;6.692;2024-01-16T23:04:27;8.60;;;6.87;;
3873;SDS011;1952;50.872;6.692;2024-01-16T23:07:14;5.87;;;5.07;;
3873;SDS011;1952;50.872;6.692;2024-01-16T23:12:25;10.07;;;7.40;;
3873;SDS011;1952;50.872;6.692;2024-01-16T23:14:55;10.80;;;6.90;;
3873;SDS011;1952;50.872;6.692;2024-01-16T23:17:24;11.10;;;6.90;;
3873;SDS011;1952;50.872;6.692;2024-01-16T23:19:52;13.93;;;7.00;;
3873;SDS011;1952;50.872;6.692;2024-01-16T23:22:20;9.77;;;7.00;;
3873;SDS011;1952;50.872;6.692;2024-01-16T23:24:49;9.70;;;7.57;;
3873;SDS011;1952;50.872;6.692;2024-01-16T23:27:17;7.23;;;6.50;;
3873;SDS011;1952;50.872;6.692;2024-01-16T23:29:45;7.00;;;6.10;;
3873;SDS011;1952;50.872;6.692;2024-01-16T23:32:14;12.30;;;6.73;;
3873;SDS011;1952;50.872;6.692;2024-01-16T23:34:43;17.13;;;8.40;;
3873;SDS011;1952;50.872;6.692;2024-01-16T23:37:12;11.17;;;6.60;;
3873;SDS011;1952;50.872;6.692;2024-01-16T23:39:42;10.90;;;6.73;;
3873;SDS011;1952;50.872;6.692;2024-01-16T23:42:11;10.33;;;7.03;;
3873;SDS011;1952;50.872;6.692;2024-01-16T23:44:41;11.13;;;7.50;;
3873;SDS011;1952;50.872;6.692;2024-01-16T23:47:09;9.63;;;6.53;;
3873;SDS011;1952;50.872;6.692;2024-01-16T23:49:39;13.03;;;6.67;;
3873;SDS011;1952;50.872;6.692;2024-01-16T23:52:08;8.57;;;6.70;;
3873;SDS011;1952;50.872;6.692;2024-01-16T23:54:36;10.10;;;6.53;;
3873;SDS011;1952;50.872;6.692;2024-01-16T23:57:05;10.20;;;6.90;;
3873;SDS011;1952;50.872;6.692;2024-01-16T23:59:34;11.57;;;6.53;;
